Stations météo

réclame
Mon MeteoGroup
Kinbrace, Grande-Bretagne (99016): Température de l'air & dewpoint: 14.01.2019 21:00:00 - 20.01.2019 21:00:00 (GMT)Kinbrace, Grande-Bretagne (99016): Vitesse du vent & gusts: 14.01.2019 21:00:00 - 20.01.2019 21:00:00 (GMT)Kinbrace, Grande-Bretagne (99016): Direction du vent: 14.01.2019 21:00:00 - 20.01.2019 21:00:00 (GMT)Kinbrace, Grande-Bretagne (99016): Quantités de précipitations: 14.01.2019 21:00:00 - 20.01.2019 21:00:00 (GMT)
Date & Time tt [°C] td [°C] ff [km/h] ff [knt] fx [km/h] fx [knt] dd rr [mm]
20.01.2019 21:00:00 -0,1 -1,7 11 6 - - NNW -
20.01.2019 20:00:00 0,4 -0,9 2 1 - - NW 0,0
20.01.2019 19:00:00 -0,3 -1,3 5 3 - - N 0,0
20.01.2019 18:00:00 0,6 -0,7 15 8 - - NW 0,0
20.01.2019 17:00:00 0,3 -0,7 5 3 - - NW 0,0
20.01.2019 16:00:00 1,8 0,6 11 6 - - NW 0,0
20.01.2019 15:00:00 0,9 0,1 9 5 - - NNW 0,0
20.01.2019 14:00:00 1,6 0,4 15 8 - - NW 0,2
20.01.2019 13:00:00 1,8 0,7 16 9 - - NW 1,6
20.01.2019 12:00:00 2,1 1,0 5 3 - - NW 0,0
20.01.2019 11:00:00 1,3 1,0 2 1 - - ENE 0,0
20.01.2019 10:00:00 1,5 1,2 4 2 - - ENE 0,0
20.01.2019 09:00:00 1,7 1,3 5 3 - - NNW 0,0
20.01.2019 08:00:00 -1,7 -2,2 5 3 - - SSE 0,0
20.01.2019 07:00:00 -3,7 -4,3 5 3 - - SSE 0,0
20.01.2019 06:00:00 -6,0 -6,8 2 1 - - SSE 0,0
20.01.2019 05:00:00 -7,1 -7,8 4 2 - - SSE 0,0
20.01.2019 04:00:00 -8,0 -8,8 4 2 - - ESE 0,0
20.01.2019 03:00:00 -9,3 -10,4 2 1 - - N 0,0
20.01.2019 02:00:00 -8,8 -9,7 2 1 - - E 0,0
20.01.2019 01:00:00 -8,4 -9,3 2 1 - - SE 0,0
20.01.2019 00:00:00 -7,6 -8,3 2 1 - - SSE 0,0
19.01.2019 23:00:00 -7,9 -8,7 4 2 - - NW 0,0
19.01.2019 22:00:00 -7,1 -7,8 2 1 - - S 0,0
19.01.2019 21:00:00 -7,0 -7,7 2 1 - - SE 0,0
19.01.2019 20:00:00 -6,1 -6,7 4 2 - - SE 0,0
19.01.2019 19:00:00 -6,6 -7,3 2 1 - - E 0,0
19.01.2019 18:00:00 -6,1 -6,9 4 2 - - N 0,0
19.01.2019 17:00:00 -4,1 -5,0 4 2 - - N 0,0
19.01.2019 16:00:00 -3,2 -4,9 2 1 - - NE 0,0
19.01.2019 15:00:00 0,7 -2,3 0 0 - - N 0,0
19.01.2019 14:00:00 0,4 -1,9 0 0 - - N 0,0
19.01.2019 13:00:00 -2,5 -3,8 4 2 - - N 0,0
19.01.2019 12:00:00 -3,2 -4,9 2 1 - - E 0,0
19.01.2019 11:00:00 -4,9 -5,6 5 3 - - N 0,0
19.01.2019 10:00:00 -6,7 -7,6 0 0 - - N 0,0
19.01.2019 09:00:00 -5,8 -6,6 2 1 - - ENE 0,0
19.01.2019 08:00:00 -5,1 -5,7 2 1 - - NE 0,0
19.01.2019 07:00:00 -5,7 -6,3 2 1 - - SE 0,0
19.01.2019 06:00:00 -6,8 -7,6 2 1 - - E 0,0
19.01.2019 05:00:00 -7,0 -8,1 4 2 - - SSE 0,0
19.01.2019 04:00:00 -6,0 -7,0 2 1 - - SE 0,0
19.01.2019 03:00:00 -4,5 -5,5 2 1 - - NNW 0,0
19.01.2019 02:00:00 -2,7 -4,1 4 2 - - E 0,0
19.01.2019 01:00:00 -1,1 -3,0 9 5 - - S 0,0
19.01.2019 00:00:00 1,6 -1,7 21 11 - - SE 0,0
18.01.2019 23:00:00 1,3 -2,8 18 10 - - SE 0,0
18.01.2019 22:00:00 0,2 -3,1 18 10 - - ESE 0,0
18.01.2019 21:00:00 1,2 -3,2 28 15 - - SE 0,0
18.01.2019 20:00:00 0,7 -2,8 22 12 - - ESE 0,0
18.01.2019 19:00:00 1,3 -2,8 24 13 - - SE 0,0
18.01.2019 18:00:00 0,7 -3,4 16 9 - - ESE 0,0
18.01.2019 17:00:00 -0,1 -3,8 9 5 - - SE 0,0
18.01.2019 16:00:00 0,4 -3,4 16 9 - - ESE 0,0
18.01.2019 15:00:00 0,6 -2,8 21 11 - - ESE 0,0
18.01.2019 14:00:00 0,6 -2,8 18 10 - - ESE 0,0
18.01.2019 13:00:00 0,9 -2,4 22 12 - - SSE 0,0
18.01.2019 12:00:00 1,3 -2,4 16 9 - - SE 0,0
18.01.2019 11:00:00 -0,1 -3,2 15 8 - - ESE 0,0
18.01.2019 10:00:00 0,5 -3,4 22 12 - - SE 0,0
18.01.2019 09:00:00 0,0 -3,4 18 10 - - SE 0,0
18.01.2019 08:00:00 0,4 -2,5 18 10 - - SE 0,0
18.01.2019 07:00:00 -0,4 -2,4 15 8 - - ESE 0,0
18.01.2019 06:00:00 -1,0 -2,5 13 7 - - ESE 0,0
18.01.2019 05:00:00 -3,7 -4,3 4 2 - - S 0,0
18.01.2019 04:00:00 -5,6 -6,4 2 1 - - E 0,0
18.01.2019 03:00:00 -5,7 -6,4 2 1 - - ESE 0,0
18.01.2019 02:00:00 -6,0 -6,9 5 3 - - NNW 0,0
18.01.2019 01:00:00 -4,9 -5,6 2 1 - - S 0,0
18.01.2019 00:00:00 -5,6 -6,5 4 2 - - S 0,0
17.01.2019 23:00:00 -4,7 -5,3 2 1 - - SSE 0,0
17.01.2019 22:00:00 -4,1 -4,6 5 3 - - SSE 0,0
17.01.2019 21:00:00 -3,2 -3,7 4 2 - - SSE 0,0
17.01.2019 20:00:00 -2,7 -3,2 4 2 - - S 0,0
17.01.2019 19:00:00 -2,2 -2,8 4 2 - - NE 0,0
17.01.2019 18:00:00 -1,3 -1,8 8 4 - - SSW 0,0
17.01.2019 17:00:00 -1,1 -1,9 2 1 - - ESE 0,0
17.01.2019 16:00:00 0,3 -0,7 9 5 - - N 0,0
17.01.2019 15:00:00 0,2 -1,6 5 3 - - N 0,2
17.01.2019 14:00:00 1,7 -1,1 5 3 - - N 0,0
17.01.2019 13:00:00 1,3 -1,2 4 2 - - E 0,0
17.01.2019 12:00:00 1,3 -1,4 4 2 - - NNE 0,0
17.01.2019 11:00:00 0,6 -1,1 4 2 - - SSE 0,0
17.01.2019 10:00:00 0,8 -0,2 22 12 - - N 0,0
17.01.2019 09:00:00 0,1 -0,9 8 4 - - N 0,0
17.01.2019 08:00:00 0,3 -1,4 21 11 63 34 N 0,0
17.01.2019 07:00:00 0,9 -1,9 35 19 50 27 N 0,0
17.01.2019 06:00:00 1,2 -2,5 28 15 - - N 0,0
17.01.2019 05:00:00 0,0 -2,0 22 12 63 34 N 0,0
17.01.2019 04:00:00 0,3 -2,1 22 12 54 29 N 0,0
17.01.2019 03:00:00 0,2 -0,9 31 17 59 32 NW 0,0
17.01.2019 02:00:00 0,9 -1,1 35 19 67 36 NNW 0,0
17.01.2019 01:00:00 0,4 -2,6 28 15 - - NNW 0,0
17.01.2019 00:00:00 -0,2 -2,1 22 12 - - N 0,0
16.01.2019 23:00:00 -0,5 -2,6 31 17 63 34 N 0,0
16.01.2019 22:00:00 -1,1 -2,2 24 13 54 29 N 0,0
16.01.2019 21:00:00 -0,5 -2,0 21 11 61 33 N 0,0
16.01.2019 20:00:00 0,6 -1,3 31 17 52 28 N 0,4
16.01.2019 19:00:00 0,5 -0,1 31 17 50 27 N 0,2
16.01.2019 18:00:00 0,3 0,0 22 12 - - N 0,2
16.01.2019 17:00:00 0,2 -0,1 11 6 - - NW 0,6
16.01.2019 16:00:00 1,1 0,1 21 11 - - NW 0,4
16.01.2019 15:00:00 2,9 2,0 11 6 - - NW 0,2
16.01.2019 14:00:00 3,5 2,5 21 11 - - NW 0,0
16.01.2019 13:00:00 3,6 2,2 9 5 - - NW 0,0
16.01.2019 12:00:00 3,3 2,3 2 1 - - NNE 0,0
16.01.2019 11:00:00 3,0 1,8 4 2 - - WNW 0,0
16.01.2019 10:00:00 2,9 1,4 5 3 - - SW 0,0
16.01.2019 09:00:00 3,3 2,0 8 4 - - SSW 0,0
16.01.2019 08:00:00 3,3 2,5 4 2 - - ENE 0,0
16.01.2019 07:00:00 3,7 2,6 4 2 - - ENE 0,0
16.01.2019 06:00:00 3,8 2,5 4 2 - - NNW 0,0
16.01.2019 05:00:00 3,7 2,4 4 2 - - N 0,0
16.01.2019 04:00:00 4,1 2,6 8 4 - - NNW 0,0
16.01.2019 03:00:00 5,5 3,6 16 9 - - NW 0,0
16.01.2019 02:00:00 6,0 3,2 21 11 - - W 0,0
16.01.2019 01:00:00 6,7 3,7 15 8 - - W 0,0
16.01.2019 00:00:00 7,1 4,8 18 10 - - WNW 0,0
15.01.2019 23:00:00 8,5 6,3 16 9 - - WSW 0,6
15.01.2019 22:00:00 8,6 6,9 9 5 - - S 0,2
15.01.2019 21:00:00 7,8 6,5 15 8 - - SSE 0,2
15.01.2019 20:00:00 7,0 6,0 13 7 - - SSW 0,0
15.01.2019 19:00:00 7,7 5,7 15 8 46 25 WSW 0,2
15.01.2019 18:00:00 7,5 6,1 22 12 - - W 0,0
15.01.2019 17:00:00 8,2 6,0 21 11 - - W 0,0
15.01.2019 16:00:00 8,7 6,6 22 12 - - WSW 0,4
15.01.2019 15:00:00 7,2 6,6 11 6 - - SSW 0,4
15.01.2019 14:00:00 6,3 5,5 5 3 - - S 0,4
15.01.2019 13:00:00 6,4 5,3 2 1 - - N 0,2
15.01.2019 12:00:00 6,5 4,7 8 4 - - WSW 0,2
15.01.2019 11:00:00 6,4 4,3 15 8 - - W 0,0
15.01.2019 10:00:00 6,2 4,1 8 4 - - W 0,0
15.01.2019 09:00:00 6,6 3,4 15 8 - - WNW 0,0
15.01.2019 08:00:00 6,3 3,0 21 11 - - WNW 0,0
15.01.2019 07:00:00 4,6 2,1 9 5 - - WSW 0,0
15.01.2019 06:00:00 4,4 2,0 8 4 - - S 0,0
15.01.2019 05:00:00 6,1 3,7 15 8 - - NW 0,0
15.01.2019 04:00:00 7,8 6,4 21 11 48 26 NW 0,0
15.01.2019 03:00:00 9,7 7,6 18 10 - - WNW 0,0
15.01.2019 02:00:00 9,7 7,8 22 12 - - W 0,2
15.01.2019 01:00:00 8,6 7,2 21 11 - - WSW 0,2
15.01.2019 00:00:00 7,9 6,6 18 10 - - WSW 0,0
14.01.2019 23:00:00 7,8 6,2 16 9 - - W 0,2
14.01.2019 22:00:00 7,3 5,9 15 8 - - WSW 0,0
14.01.2019 21:00:00 6,3 4,9 8 4 - - S 0,0

tt = Température de l'air
td = dewpoint
ff = Vitesse du vent
fx = gusts
dd = Direction du vent
rr = Quantités de précipitations

stations d'obs. à proximité